sensor_id;sensor_type;location;lat;lon;timestamp;P1;durP1;ratioP1;P2;durP2;ratioP2
40449;SDS011;41787;53.570;10.032;2022-10-16T00:01:37;10.60;;;6.07;;
40449;SDS011;41787;53.570;10.032;2022-10-16T00:04:04;10.23;;;5.65;;
40449;SDS011;41787;53.570;10.032;2022-10-16T00:06:30;7.35;;;5.28;;
40449;SDS011;41787;53.570;10.032;2022-10-16T00:08:56;8.80;;;5.28;;
40449;SDS011;41787;53.570;10.032;2022-10-16T00:11:24;6.47;;;4.80;;
40449;SDS011;41787;53.570;10.032;2022-10-16T00:13:51;6.53;;;5.18;;
40449;SDS011;41787;53.570;10.032;2022-10-16T00:16:18;6.85;;;4.45;;
40449;SDS011;41787;53.570;10.032;2022-10-16T00:18:44;10.50;;;4.07;;
40449;SDS011;41787;53.570;10.032;2022-10-16T00:21:11;7.85;;;3.78;;
40449;SDS011;41787;53.570;10.032;2022-10-16T00:23:38;7.30;;;3.72;;
40449;SDS011;41787;53.570;10.032;2022-10-16T00:26:06;10.90;;;4.13;;
40449;SDS011;41787;53.570;10.032;2022-10-16T00:28:34;6.68;;;4.25;;
40449;SDS011;41787;53.570;10.032;2022-10-16T00:31:03;10.05;;;3.22;;
40449;SDS011;41787;53.570;10.032;2022-10-16T00:33:29;5.18;;;3.08;;
40449;SDS011;41787;53.570;10.032;2022-10-16T00:35:57;6.97;;;2.83;;
40449;SDS011;41787;53.570;10.032;2022-10-16T00:38:23;6.25;;;2.75;;
40449;SDS011;41787;53.570;10.032;2022-10-16T00:40:49;6.63;;;2.90;;
40449;SDS011;41787;53.570;10.032;2022-10-16T00:46:00;7.80;;;2.72;;
40449;SDS011;41787;53.570;10.032;2022-10-16T00:48:27;7.07;;;2.75;;
40449;SDS011;41787;53.570;10.032;2022-10-16T00:50:53;7.53;;;2.70;;
40449;SDS011;41787;53.570;10.032;2022-10-16T00:53:19;5.05;;;2.38;;
40449;SDS011;41787;53.570;10.032;2022-10-16T00:55:45;4.82;;;2.22;;
40449;SDS011;41787;53.570;10.032;2022-10-16T00:58:11;6.35;;;1.63;;
40449;SDS011;41787;53.570;10.032;2022-10-16T01:00:37;5.43;;;1.85;;
40449;SDS011;41787;53.570;10.032;2022-10-16T01:03:21;7.47;;;1.42;;
40449;SDS011;41787;53.570;10.032;2022-10-16T01:05:53;5.03;;;1.17;;
40449;SDS011;41787;53.570;10.032;2022-10-16T01:08:22;7.38;;;1.38;;
40449;SDS011;41787;53.570;10.032;2022-10-16T01:13:55;5.72;;;1.40;;
40449;SDS011;41787;53.570;10.032;2022-10-16T01:16:24;4.57;;;1.50;;
40449;SDS011;41787;53.570;10.032;2022-10-16T01:18:55;3.22;;;1.35;;
40449;SDS011;41787;53.570;10.032;2022-10-16T01:21:24;7.97;;;1.35;;
40449;SDS011;41787;53.570;10.032;2022-10-16T01:31:30;4.50;;;1.50;;
40449;SDS011;41787;53.570;10.032;2022-10-16T01:34:02;6.60;;;1.30;;
40449;SDS011;41787;53.570;10.032;2022-10-16T01:36:50;4.45;;;1.50;;
40449;SDS011;41787;53.570;10.032;2022-10-16T01:39:22;3.10;;;1.27;;
40449;SDS011;41787;53.570;10.032;2022-10-16T01:41:58;3.42;;;1.23;;
40449;SDS011;41787;53.570;10.032;2022-10-16T01:44:28;3.55;;;1.60;;
40449;SDS011;41787;53.570;10.032;2022-10-16T01:46:55;5.75;;;1.58;;
40449;SDS011;41787;53.570;10.032;2022-10-16T01:49:22;4.03;;;1.48;;
40449;SDS011;41787;53.570;10.032;2022-10-16T01:51:58;3.60;;;1.50;;
40449;SDS011;41787;53.570;10.032;2022-10-16T01:54:25;10.00;;;3.03;;
40449;SDS011;41787;53.570;10.032;2022-10-16T01:56:53;3.75;;;1.20;;
40449;SDS011;41787;53.570;10.032;2022-10-16T01:59:20;1.88;;;1.10;;
40449;SDS011;41787;53.570;10.032;2022-10-16T02:01:47;3.33;;;1.70;;
40449;SDS011;41787;53.570;10.032;2022-10-16T02:06:43;4.13;;;1.73;;
40449;SDS011;41787;53.570;10.032;2022-10-16T02:09:09;4.28;;;1.75;;
40449;SDS011;41787;53.570;10.032;2022-10-16T02:11:35;17.10;;;1.65;;
40449;SDS011;41787;53.570;10.032;2022-10-16T02:14:02;7.18;;;1.55;;
40449;SDS011;41787;53.570;10.032;2022-10-16T02:16:34;4.93;;;1.13;;
40449;SDS011;41787;53.570;10.032;2022-10-16T02:19:00;4.65;;;2.00;;
40449;SDS011;41787;53.570;10.032;2022-10-16T02:21:28;7.35;;;1.38;;
40449;SDS011;41787;53.570;10.032;2022-10-16T02:26:28;2.83;;;1.30;;
40449;SDS011;41787;53.570;10.032;2022-10-16T02:28:57;5.40;;;1.40;;
40449;SDS011;41787;53.570;10.032;2022-10-16T02:31:27;11.65;;;1.25;;
40449;SDS011;41787;53.570;10.032;2022-10-16T02:33:54;2.83;;;1.23;;
40449;SDS011;41787;53.570;10.032;2022-10-16T02:36:22;4.43;;;1.58;;
40449;SDS011;41787;53.570;10.032;2022-10-16T02:38:48;5.65;;;1.60;;
40449;SDS011;41787;53.570;10.032;2022-10-16T02:41:15;2.38;;;1.10;;
40449;SDS011;41787;53.570;10.032;2022-10-16T02:43:41;3.97;;;1.42;;
40449;SDS011;41787;53.570;10.032;2022-10-16T02:46:07;6.70;;;1.30;;
40449;SDS011;41787;53.570;10.032;2022-10-16T02:48:33;3.92;;;1.40;;
40449;SDS011;41787;53.570;10.032;2022-10-16T02:50:59;3.40;;;1.48;;
40449;SDS011;41787;53.570;10.032;2022-10-16T02:53:25;5.65;;;1.20;;
40449;SDS011;41787;53.570;10.032;2022-10-16T02:55:51;5.25;;;1.05;;
40449;SDS011;41787;53.570;10.032;2022-10-16T02:58:17;5.35;;;1.65;;
40449;SDS011;41787;53.570;10.032;2022-10-16T03:00:43;5.03;;;1.40;;
40449;SDS011;41787;53.570;10.032;2022-10-16T03:03:09;8.15;;;1.25;;
40449;SDS011;41787;53.570;10.032;2022-10-16T03:05:35;6.30;;;1.23;;
40449;SDS011;41787;53.570;10.032;2022-10-16T03:08:01;5.00;;;1.15;;
40449;SDS011;41787;53.570;10.032;2022-10-16T03:10:27;5.22;;;1.00;;
40449;SDS011;41787;53.570;10.032;2022-10-16T03:12:53;3.80;;;1.45;;
40449;SDS011;41787;53.570;10.032;2022-10-16T03:15:19;5.68;;;1.20;;
40449;SDS011;41787;53.570;10.032;2022-10-16T03:17:45;7.60;;;1.58;;
40449;SDS011;41787;53.570;10.032;2022-10-16T03:20:11;7.85;;;1.52;;
40449;SDS011;41787;53.570;10.032;2022-10-16T03:22:36;6.97;;;1.48;;
40449;SDS011;41787;53.570;10.032;2022-10-16T03:25:02;8.25;;;1.98;;
40449;SDS011;41787;53.570;10.032;2022-10-16T03:27:28;3.72;;;1.30;;
40449;SDS011;41787;53.570;10.032;2022-10-16T03:29:54;8.65;;;1.05;;
40449;SDS011;41787;53.570;10.032;2022-10-16T03:32:20;8.30;;;1.70;;
40449;SDS011;41787;53.570;10.032;2022-10-16T03:34:46;9.05;;;1.50;;
40449;SDS011;41787;53.570;10.032;2022-10-16T03:37:12;4.35;;;1.20;;
40449;SDS011;41787;53.570;10.032;2022-10-16T03:39:38;6.13;;;1.63;;
40449;SDS011;41787;53.570;10.032;2022-10-16T03:42:04;5.75;;;1.40;;
40449;SDS011;41787;53.570;10.032;2022-10-16T03:44:30;3.83;;;1.30;;
40449;SDS011;41787;53.570;10.032;2022-10-16T03:46:56;2.03;;;1.08;;
40449;SDS011;41787;53.570;10.032;2022-10-16T03:49:22;2.95;;;1.30;;
40449;SDS011;41787;53.570;10.032;2022-10-16T03:51:48;8.10;;;1.27;;
40449;SDS011;41787;53.570;10.032;2022-10-16T03:54:14;3.30;;;1.08;;
40449;SDS011;41787;53.570;10.032;2022-10-16T03:56:40;4.25;;;1.15;;
40449;SDS011;41787;53.570;10.032;2022-10-16T03:59:06;6.53;;;1.30;;
40449;SDS011;41787;53.570;10.032;2022-10-16T04:01:32;2.97;;;1.25;;
40449;SDS011;41787;53.570;10.032;2022-10-16T04:03:58;6.32;;;1.52;;
40449;SDS011;41787;53.570;10.032;2022-10-16T04:06:24;5.30;;;1.38;;
40449;SDS011;41787;53.570;10.032;2022-10-16T04:08:50;4.63;;;1.83;;
40449;SDS011;41787;53.570;10.032;2022-10-16T04:11:15;6.53;;;1.30;;
40449;SDS011;41787;53.570;10.032;2022-10-16T04:13:41;4.60;;;1.10;;
40449;SDS011;41787;53.570;10.032;2022-10-16T04:16:08;5.47;;;1.30;;
40449;SDS011;41787;53.570;10.032;2022-10-16T04:18:34;2.35;;;0.93;;
40449;SDS011;41787;53.570;10.032;2022-10-16T04:21:04;8.38;;;1.13;;
40449;SDS011;41787;53.570;10.032;2022-10-16T04:23:30;2.90;;;0.98;;
40449;SDS011;41787;53.570;10.032;2022-10-16T04:25:56;2.72;;;1.05;;
40449;SDS011;41787;53.570;10.032;2022-10-16T04:28:22;3.78;;;1.25;;
40449;SDS011;41787;53.570;10.032;2022-10-16T04:30:48;3.03;;;1.13;;
40449;SDS011;41787;53.570;10.032;2022-10-16T04:33:14;6.53;;;1.20;;
40449;SDS011;41787;53.570;10.032;2022-10-16T04:35:40;5.63;;;1.83;;
40449;SDS011;41787;53.570;10.032;2022-10-16T04:38:06;11.05;;;1.42;;
40449;SDS011;41787;53.570;10.032;2022-10-16T04:40:32;4.50;;;1.25;;
40449;SDS011;41787;53.570;10.032;2022-10-16T04:43:00;7.47;;;1.20;;
40449;SDS011;41787;53.570;10.032;2022-10-16T04:45:26;4.25;;;0.93;;
40449;SDS011;41787;53.570;10.032;2022-10-16T04:47:52;6.20;;;1.45;;
40449;SDS011;41787;53.570;10.032;2022-10-16T04:50:18;3.38;;;0.90;;
40449;SDS011;41787;53.570;10.032;2022-10-16T04:52:44;4.18;;;1.83;;
40449;SDS011;41787;53.570;10.032;2022-10-16T04:55:10;3.40;;;1.02;;
40449;SDS011;41787;53.570;10.032;2022-10-16T04:57:36;5.45;;;1.30;;
40449;SDS011;41787;53.570;10.032;2022-10-16T05:00:02;3.50;;;1.23;;
40449;SDS011;41787;53.570;10.032;2022-10-16T05:02:29;4.78;;;1.25;;
40449;SDS011;41787;53.570;10.032;2022-10-16T05:04:54;2.88;;;1.40;;
40449;SDS011;41787;53.570;10.032;2022-10-16T05:07:20;2.22;;;0.98;;
40449;SDS011;41787;53.570;10.032;2022-10-16T05:09:46;5.80;;;1.40;;
40449;SDS011;41787;53.570;10.032;2022-10-16T05:12:12;7.55;;;1.42;;
40449;SDS011;41787;53.570;10.032;2022-10-16T05:14:38;4.63;;;1.60;;
40449;SDS011;41787;53.570;10.032;2022-10-16T05:17:04;3.65;;;1.60;;
40449;SDS011;41787;53.570;10.032;2022-10-16T05:19:30;4.22;;;1.42;;
40449;SDS011;41787;53.570;10.032;2022-10-16T05:21:56;5.30;;;1.58;;
40449;SDS011;41787;53.570;10.032;2022-10-16T05:24:22;10.07;;;3.13;;
40449;SDS011;41787;53.570;10.032;2022-10-16T05:26:49;15.73;;;1.50;;
40449;SDS011;41787;53.570;10.032;2022-10-16T05:29:15;5.82;;;1.42;;
40449;SDS011;41787;53.570;10.032;2022-10-16T05:31:41;8.40;;;1.63;;
40449;SDS011;41787;53.570;10.032;2022-10-16T05:34:07;2.75;;;1.40;;
40449;SDS011;41787;53.570;10.032;2022-10-16T05:36:33;6.00;;;1.40;;
40449;SDS011;41787;53.570;10.032;2022-10-16T05:38:58;3.78;;;1.33;;
40449;SDS011;41787;53.570;10.032;2022-10-16T05:41:24;6.00;;;1.80;;
40449;SDS011;41787;53.570;10.032;2022-10-16T05:43:51;5.32;;;1.42;;
40449;SDS011;41787;53.570;10.032;2022-10-16T05:46:17;7.97;;;2.20;;
40449;SDS011;41787;53.570;10.032;2022-10-16T05:48:43;3.35;;;1.52;;
40449;SDS011;41787;53.570;10.032;2022-10-16T05:51:10;4.18;;;1.60;;
40449;SDS011;41787;53.570;10.032;2022-10-16T05:53:36;4.93;;;1.70;;
40449;SDS011;41787;53.570;10.032;2022-10-16T05:56:03;7.53;;;1.67;;
40449;SDS011;41787;53.570;10.032;2022-10-16T05:58:31;4.10;;;1.70;;
40449;SDS011;41787;53.570;10.032;2022-10-16T06:00:59;6.20;;;1.35;;
40449;SDS011;41787;53.570;10.032;2022-10-16T06:03:25;7.07;;;1.42;;
40449;SDS011;41787;53.570;10.032;2022-10-16T06:05:51;4.43;;;1.38;;
40449;SDS011;41787;53.570;10.032;2022-10-16T06:08:18;2.30;;;1.33;;
40449;SDS011;41787;53.570;10.032;2022-10-16T06:10:44;4.35;;;1.48;;
40449;SDS011;41787;53.570;10.032;2022-10-16T06:13:11;8.43;;;2.00;;
40449;SDS011;41787;53.570;10.032;2022-10-16T06:15:37;6.57;;;1.38;;
40449;SDS011;41787;53.570;10.032;2022-10-16T06:18:04;4.72;;;1.27;;
40449;SDS011;41787;53.570;10.032;2022-10-16T06:20:30;5.22;;;1.83;;
40449;SDS011;41787;53.570;10.032;2022-10-16T06:22:56;4.25;;;1.45;;
40449;SDS011;41787;53.570;10.032;2022-10-16T06:25:22;4.60;;;1.40;;
40449;SDS011;41787;53.570;10.032;2022-10-16T06:27:48;5.28;;;1.60;;
40449;SDS011;41787;53.570;10.032;2022-10-16T06:30:14;8.02;;;1.80;;
40449;SDS011;41787;53.570;10.032;2022-10-16T06:32:40;6.70;;;1.60;;
40449;SDS011;41787;53.570;10.032;2022-10-16T06:35:06;6.25;;;1.50;;
40449;SDS011;41787;53.570;10.032;2022-10-16T06:37:32;2.92;;;1.70;;
40449;SDS011;41787;53.570;10.032;2022-10-16T06:39:58;7.97;;;3.25;;
40449;SDS011;41787;53.570;10.032;2022-10-16T06:42:25;5.25;;;1.65;;
40449;SDS011;41787;53.570;10.032;2022-10-16T06:44:51;3.45;;;1.50;;
40449;SDS011;41787;53.570;10.032;2022-10-16T06:47:17;6.97;;;2.33;;
40449;SDS011;41787;53.570;10.032;2022-10-16T06:49:43;4.65;;;1.80;;
40449;SDS011;41787;53.570;10.032;2022-10-16T06:52:08;5.53;;;1.95;;
40449;SDS011;41787;53.570;10.032;2022-10-16T06:54:34;6.75;;;1.75;;
40449;SDS011;41787;53.570;10.032;2022-10-16T06:57:00;7.82;;;2.20;;
40449;SDS011;41787;53.570;10.032;2022-10-16T06:59:26;5.75;;;1.90;;
40449;SDS011;41787;53.570;10.032;2022-10-16T07:01:52;5.57;;;1.90;;
40449;SDS011;41787;53.570;10.032;2022-10-16T07:04:18;6.00;;;2.03;;
40449;SDS011;41787;53.570;10.032;2022-10-16T07:06:44;6.13;;;1.98;;
40449;SDS011;41787;53.570;10.032;2022-10-16T07:09:10;10.55;;;2.03;;
40449;SDS011;41787;53.570;10.032;2022-10-16T07:11:37;4.65;;;2.17;;
40449;SDS011;41787;53.570;10.032;2022-10-16T07:14:04;5.00;;;2.08;;
40449;SDS011;41787;53.570;10.032;2022-10-16T07:16:31;3.90;;;2.00;;
40449;SDS011;41787;53.570;10.032;2022-10-16T07:18:58;6.50;;;2.35;;
40449;SDS011;41787;53.570;10.032;2022-10-16T07:21:28;5.25;;;2.30;;
40449;SDS011;41787;53.570;10.032;2022-10-16T07:26:21;6.32;;;1.95;;
40449;SDS011;41787;53.570;10.032;2022-10-16T07:28:47;12.90;;;2.40;;
40449;SDS011;41787;53.570;10.032;2022-10-16T07:31:14;7.85;;;2.05;;
40449;SDS011;41787;53.570;10.032;2022-10-16T07:33:40;6.20;;;2.70;;
40449;SDS011;41787;53.570;10.032;2022-10-16T07:36:08;6.57;;;2.25;;
40449;SDS011;41787;53.570;10.032;2022-10-16T07:38:34;7.15;;;2.30;;
40449;SDS011;41787;53.570;10.032;2022-10-16T07:41:01;9.15;;;2.30;;
40449;SDS011;41787;53.570;10.032;2022-10-16T07:43:28;5.53;;;2.13;;
40449;SDS011;41787;53.570;10.032;2022-10-16T07:45:54;6.07;;;2.00;;
40449;SDS011;41787;53.570;10.032;2022-10-16T07:48:20;4.60;;;2.00;;
40449;SDS011;41787;53.570;10.032;2022-10-16T07:50:46;3.65;;;2.03;;
40449;SDS011;41787;53.570;10.032;2022-10-16T07:53:13;7.00;;;1.80;;
40449;SDS011;41787;53.570;10.032;2022-10-16T07:55:39;7.75;;;1.85;;
40449;SDS011;41787;53.570;10.032;2022-10-16T07:58:04;2.17;;;1.52;;
40449;SDS011;41787;53.570;10.032;2022-10-16T08:00:31;5.30;;;1.55;;
40449;SDS011;41787;53.570;10.032;2022-10-16T08:02:57;3.58;;;1.55;;
40449;SDS011;41787;53.570;10.032;2022-10-16T08:05:29;5.50;;;2.03;;
40449;SDS011;41787;53.570;10.032;2022-10-16T08:07:56;4.97;;;1.80;;
40449;SDS011;41787;53.570;10.032;2022-10-16T08:10:23;3.25;;;1.52;;
40449;SDS011;41787;53.570;10.032;2022-10-16T08:12:50;4.47;;;2.00;;
40449;SDS011;41787;53.570;10.032;2022-10-16T08:15:16;5.63;;;2.15;;
40449;SDS011;41787;53.570;10.032;2022-10-16T08:17:42;6.60;;;2.00;;
40449;SDS011;41787;53.570;10.032;2022-10-16T08:20:08;7.03;;;2.08;;
40449;SDS011;41787;53.570;10.032;2022-10-16T08:22:34;3.85;;;1.40;;
40449;SDS011;41787;53.570;10.032;2022-10-16T08:25:00;4.90;;;2.17;;
40449;SDS011;41787;53.570;10.032;2022-10-16T08:27:31;6.85;;;1.70;;
40449;SDS011;41787;53.570;10.032;2022-10-16T08:29:57;2.90;;;1.80;;
40449;SDS011;41787;53.570;10.032;2022-10-16T08:32:23;3.60;;;1.80;;
40449;SDS011;41787;53.570;10.032;2022-10-16T08:34:49;7.93;;;2.65;;
40449;SDS011;41787;53.570;10.032;2022-10-16T08:37:14;9.48;;;2.20;;
40449;SDS011;41787;53.570;10.032;2022-10-16T08:39:40;4.45;;;2.22;;
40449;SDS011;41787;53.570;10.032;2022-10-16T08:50:10;5.75;;;1.67;;
40449;SDS011;41787;53.570;10.032;2022-10-16T08:52:38;7.75;;;1.65;;
40449;SDS011;41787;53.570;10.032;2022-10-16T08:55:05;5.63;;;1.50;;
40449;SDS011;41787;53.570;10.032;2022-10-16T08:57:31;3.25;;;1.73;;
40449;SDS011;41787;53.570;10.032;2022-10-16T08:59:59;5.05;;;2.10;;
40449;SDS011;41787;53.570;10.032;2022-10-16T09:07:43;6.45;;;2.35;;
40449;SDS011;41787;53.570;10.032;2022-10-16T09:12:58;3.08;;;1.23;;
40449;SDS011;41787;53.570;10.032;2022-10-16T09:15:39;2.88;;;1.17;;
40449;SDS011;41787;53.570;10.032;2022-10-16T09:21:01;3.63;;;1.40;;
40449;SDS011;41787;53.570;10.032;2022-10-16T09:23:31;5.07;;;1.40;;
40449;SDS011;41787;53.570;10.032;2022-10-16T09:26:00;5.65;;;1.10;;
40449;SDS011;41787;53.570;10.032;2022-10-16T09:28:27;6.93;;;1.55;;
40449;SDS011;41787;53.570;10.032;2022-10-16T09:30:52;2.42;;;1.00;;
40449;SDS011;41787;53.570;10.032;2022-10-16T09:33:20;5.35;;;1.17;;
40449;SDS011;41787;53.570;10.032;2022-10-16T09:35:48;3.58;;;1.27;;
40449;SDS011;41787;53.570;10.032;2022-10-16T09:38:21;4.30;;;1.15;;
40449;SDS011;41787;53.570;10.032;2022-10-16T09:40:47;4.65;;;1.20;;
40449;SDS011;41787;53.570;10.032;2022-10-16T09:43:19;3.42;;;1.00;;
40449;SDS011;41787;53.570;10.032;2022-10-16T09:46:02;6.72;;;1.20;;
40449;SDS011;41787;53.570;10.032;2022-10-16T09:48:37;2.83;;;1.10;;
40449;SDS011;41787;53.570;10.032;2022-10-16T09:51:05;2.88;;;0.90;;
40449;SDS011;41787;53.570;10.032;2022-10-16T09:53:37;4.00;;;0.95;;
40449;SDS011;41787;53.570;10.032;2022-10-16T09:56:04;4.50;;;1.10;;
40449;SDS011;41787;53.570;10.032;2022-10-16T09:58:31;4.30;;;1.02;;
40449;SDS011;41787;53.570;10.032;2022-10-16T10:00:58;6.10;;;1.25;;
40449;SDS011;41787;53.570;10.032;2022-10-16T10:05:56;5.60;;;1.40;;
40449;SDS011;41787;53.570;10.032;2022-10-16T10:08:22;2.78;;;0.90;;
40449;SDS011;41787;53.570;10.032;2022-10-16T10:10:49;3.08;;;1.00;;
40449;SDS011;41787;53.570;10.032;2022-10-16T10:13:21;5.03;;;1.10;;
40449;SDS011;41787;53.570;10.032;2022-10-16T10:15:48;5.45;;;1.73;;
40449;SDS011;41787;53.570;10.032;2022-10-16T10:18:14;3.05;;;0.98;;
40449;SDS011;41787;53.570;10.032;2022-10-16T10:20:41;4.75;;;1.40;;
40449;SDS011;41787;53.570;10.032;2022-10-16T10:23:20;2.58;;;1.20;;
40449;SDS011;41787;53.570;10.032;2022-10-16T10:28:21;5.13;;;1.17;;
40449;SDS011;41787;53.570;10.032;2022-10-16T10:46:51;6.63;;;1.00;;
40449;SDS011;41787;53.570;10.032;2022-10-16T10:49:25;6.00;;;0.80;;
40449;SDS011;41787;53.570;10.032;2022-10-16T10:52:12;6.68;;;0.90;;
40449;SDS011;41787;53.570;10.032;2022-10-16T10:54:45;5.93;;;1.77;;
40449;SDS011;41787;53.570;10.032;2022-10-16T11:05:17;7.88;;;0.90;;
40449;SDS011;41787;53.570;10.032;2022-10-16T11:07:49;6.88;;;0.82;;
40449;SDS011;41787;53.570;10.032;2022-10-16T11:10:19;6.65;;;0.73;;
40449;SDS011;41787;53.570;10.032;2022-10-16T11:12:47;2.10;;;0.68;;
40449;SDS011;41787;53.570;10.032;2022-10-16T11:15:17;1.52;;;0.63;;
40449;SDS011;41787;53.570;10.032;2022-10-16T11:17:46;6.97;;;1.33;;
40449;SDS011;41787;53.570;10.032;2022-10-16T11:20:20;5.22;;;1.15;;
40449;SDS011;41787;53.570;10.032;2022-10-16T11:22:51;3.85;;;0.88;;
40449;SDS011;41787;53.570;10.032;2022-10-16T11:25:22;5.05;;;0.57;;
40449;SDS011;41787;53.570;10.032;2022-10-16T11:28:00;2.80;;;0.73;;
40449;SDS011;41787;53.570;10.032;2022-10-16T11:30:28;1.15;;;0.60;;
40449;SDS011;41787;53.570;10.032;2022-10-16T11:33:02;5.35;;;0.88;;
40449;SDS011;41787;53.570;10.032;2022-10-16T11:35:36;12.38;;;1.20;;
40449;SDS011;41787;53.570;10.032;2022-10-16T11:38:03;6.50;;;1.00;;
40449;SDS011;41787;53.570;10.032;2022-10-16T11:40:37;3.35;;;0.50;;
40449;SDS011;41787;53.570;10.032;2022-10-16T11:43:08;3.67;;;0.60;;
40449;SDS011;41787;53.570;10.032;2022-10-16T11:45:39;2.75;;;0.55;;
40449;SDS011;41787;53.570;10.032;2022-10-16T11:50:53;5.18;;;1.08;;
40449;SDS011;41787;53.570;10.032;2022-10-16T11:55:54;4.28;;;0.80;;
40449;SDS011;41787;53.570;10.032;2022-10-16T12:00:47;4.88;;;0.77;;
40449;SDS011;41787;53.570;10.032;2022-10-16T12:08:17;5.32;;;0.88;;
40449;SDS011;41787;53.570;10.032;2022-10-16T12:10:44;5.13;;;0.68;;
40449;SDS011;41787;53.570;10.032;2022-10-16T12:18:45;4.13;;;0.90;;
40449;SDS011;41787;53.570;10.032;2022-10-16T12:21:11;4.78;;;1.23;;
40449;SDS011;41787;53.570;10.032;2022-10-16T12:26:44;3.03;;;0.70;;
40449;SDS011;41787;53.570;10.032;2022-10-16T12:31:37;8.82;;;1.50;;
40449;SDS011;41787;53.570;10.032;2022-10-16T12:34:04;3.72;;;0.75;;
40449;SDS011;41787;53.570;10.032;2022-10-16T12:36:31;3.72;;;0.90;;
40449;SDS011;41787;53.570;10.032;2022-10-16T12:38:57;8.23;;;1.00;;
40449;SDS011;41787;53.570;10.032;2022-10-16T12:41:34;5.25;;;0.70;;
40449;SDS011;41787;53.570;10.032;2022-10-16T12:44:01;4.15;;;0.88;;
40449;SDS011;41787;53.570;10.032;2022-10-16T12:54:11;6.45;;;1.27;;
40449;SDS011;41787;53.570;10.032;2022-10-16T12:56:45;4.28;;;0.98;;
40449;SDS011;41787;53.570;10.032;2022-10-16T12:59:22;3.08;;;1.00;;
40449;SDS011;41787;53.570;10.032;2022-10-16T13:07:40;4.07;;;1.08;;
40449;SDS011;41787;53.570;10.032;2022-10-16T13:12:57;5.68;;;1.00;;
40449;SDS011;41787;53.570;10.032;2022-10-16T13:15:32;5.22;;;0.95;;
40449;SDS011;41787;53.570;10.032;2022-10-16T13:23:06;3.40;;;0.93;;
40449;SDS011;41787;53.570;10.032;2022-10-16T13:25:41;4.00;;;0.65;;
40449;SDS011;41787;53.570;10.032;2022-10-16T13:28:10;2.92;;;0.73;;
40449;SDS011;41787;53.570;10.032;2022-10-16T13:30:39;4.40;;;0.80;;
40449;SDS011;41787;53.570;10.032;2022-10-16T13:33:24;7.50;;;1.02;;
40449;SDS011;41787;53.570;10.032;2022-10-16T13:35:53;7.47;;;1.25;;
40449;SDS011;41787;53.570;10.032;2022-10-16T13:38:20;4.18;;;1.10;;
40449;SDS011;41787;53.570;10.032;2022-10-16T13:40:50;7.63;;;1.13;;
40449;SDS011;41787;53.570;10.032;2022-10-16T13:43:18;5.07;;;1.40;;
40449;SDS011;41787;53.570;10.032;2022-10-16T13:45:54;5.75;;;1.15;;
40449;SDS011;41787;53.570;10.032;2022-10-16T13:48:20;4.18;;;0.80;;
40449;SDS011;41787;53.570;10.032;2022-10-16T13:50:46;10.35;;;0.90;;
40449;SDS011;41787;53.570;10.032;2022-10-16T13:53:13;8.13;;;1.13;;
40449;SDS011;41787;53.570;10.032;2022-10-16T13:55:39;8.63;;;1.20;;
40449;SDS011;41787;53.570;10.032;2022-10-16T13:58:11;6.05;;;1.10;;
40449;SDS011;41787;53.570;10.032;2022-10-16T14:00:37;6.22;;;1.55;;
40449;SDS011;41787;53.570;10.032;2022-10-16T14:03:04;6.65;;;1.00;;
40449;SDS011;41787;53.570;10.032;2022-10-16T14:05:31;3.00;;;0.60;;
40449;SDS011;41787;53.570;10.032;2022-10-16T14:07:57;4.72;;;0.95;;
40449;SDS011;41787;53.570;10.032;2022-10-16T14:10:30;5.38;;;1.00;;
40449;SDS011;41787;53.570;10.032;2022-10-16T14:13:00;6.63;;;1.02;;
40449;SDS011;41787;53.570;10.032;2022-10-16T14:15:27;9.18;;;1.40;;
40449;SDS011;41787;53.570;10.032;2022-10-16T14:17:55;5.45;;;1.00;;
40449;SDS011;41787;53.570;10.032;2022-10-16T14:20:24;3.50;;;0.70;;
40449;SDS011;41787;53.570;10.032;2022-10-16T14:22:58;9.32;;;1.38;;
40449;SDS011;41787;53.570;10.032;2022-10-16T14:25:27;5.13;;;0.90;;
40449;SDS011;41787;53.570;10.032;2022-10-16T14:32:56;14.73;;;1.08;;
40449;SDS011;41787;53.570;10.032;2022-10-16T14:35:23;5.25;;;1.17;;
40449;SDS011;41787;53.570;10.032;2022-10-16T14:37:53;4.85;;;1.48;;
40449;SDS011;41787;53.570;10.032;2022-10-16T14:40:20;4.72;;;0.60;;
40449;SDS011;41787;53.570;10.032;2022-10-16T14:42:47;6.05;;;0.88;;
40449;SDS011;41787;53.570;10.032;2022-10-16T14:45:15;4.35;;;0.88;;
40449;SDS011;41787;53.570;10.032;2022-10-16T14:47:54;8.63;;;1.17;;
40449;SDS011;41787;53.570;10.032;2022-10-16T14:50:20;3.85;;;0.80;;
40449;SDS011;41787;53.570;10.032;2022-10-16T14:52:46;6.05;;;1.55;;
40449;SDS011;41787;53.570;10.032;2022-10-16T14:55:12;5.75;;;1.48;;
40449;SDS011;41787;53.570;10.032;2022-10-16T14:57:38;6.60;;;1.30;;
40449;SDS011;41787;53.570;10.032;2022-10-16T15:00:21;3.35;;;0.80;;
40449;SDS011;41787;53.570;10.032;2022-10-16T15:02:47;5.53;;;0.95;;
40449;SDS011;41787;53.570;10.032;2022-10-16T15:05:18;9.93;;;1.02;;
40449;SDS011;41787;53.570;10.032;2022-10-16T15:07:44;6.00;;;0.70;;
40449;SDS011;41787;53.570;10.032;2022-10-16T15:10:11;2.35;;;0.80;;
40449;SDS011;41787;53.570;10.032;2022-10-16T15:12:37;7.57;;;1.27;;
40449;SDS011;41787;53.570;10.032;2022-10-16T15:17:41;5.65;;;1.23;;
40449;SDS011;41787;53.570;10.032;2022-10-16T15:20:07;5.97;;;1.40;;
40449;SDS011;41787;53.570;10.032;2022-10-16T15:22:33;11.88;;;1.77;;
40449;SDS011;41787;53.570;10.032;2022-10-16T15:24:59;7.38;;;1.27;;
40449;SDS011;41787;53.570;10.032;2022-10-16T15:27:25;6.28;;;1.80;;
40449;SDS011;41787;53.570;10.032;2022-10-16T15:29:51;9.32;;;1.38;;
40449;SDS011;41787;53.570;10.032;2022-10-16T15:32:17;7.63;;;1.58;;
40449;SDS011;41787;53.570;10.032;2022-10-16T15:34:43;5.32;;;1.15;;
40449;SDS011;41787;53.570;10.032;2022-10-16T15:37:09;3.97;;;1.45;;
40449;SDS011;41787;53.570;10.032;2022-10-16T15:39:36;5.28;;;0.98;;
40449;SDS011;41787;53.570;10.032;2022-10-16T15:42:02;7.82;;;1.52;;
40449;SDS011;41787;53.570;10.032;2022-10-16T15:44:30;6.57;;;1.10;;
40449;SDS011;41787;53.570;10.032;2022-10-16T15:46:56;3.33;;;1.10;;
40449;SDS011;41787;53.570;10.032;2022-10-16T15:49:22;7.00;;;1.50;;
40449;SDS011;41787;53.570;10.032;2022-10-16T15:51:48;6.07;;;0.95;;
40449;SDS011;41787;53.570;10.032;2022-10-16T15:54:14;7.03;;;1.38;;
40449;SDS011;41787;53.570;10.032;2022-10-16T15:56:40;8.70;;;1.60;;
40449;SDS011;41787;53.570;10.032;2022-10-16T15:59:06;4.30;;;1.10;;
40449;SDS011;41787;53.570;10.032;2022-10-16T16:01:36;9.95;;;1.63;;
40449;SDS011;41787;53.570;10.032;2022-10-16T16:04:02;9.18;;;1.40;;
40449;SDS011;41787;53.570;10.032;2022-10-16T16:06:29;10.40;;;1.33;;
40449;SDS011;41787;53.570;10.032;2022-10-16T16:09:01;5.78;;;1.15;;
40449;SDS011;41787;53.570;10.032;2022-10-16T16:11:27;7.80;;;1.00;;
40449;SDS011;41787;53.570;10.032;2022-10-16T16:13:54;8.23;;;1.40;;
40449;SDS011;41787;53.570;10.032;2022-10-16T16:16:20;4.18;;;1.20;;
40449;SDS011;41787;53.570;10.032;2022-10-16T16:18:46;5.60;;;1.63;;
40449;SDS011;41787;53.570;10.032;2022-10-16T16:21:14;8.10;;;1.30;;
40449;SDS011;41787;53.570;10.032;2022-10-16T16:23:40;8.52;;;1.65;;
40449;SDS011;41787;53.570;10.032;2022-10-16T16:28:32;11.80;;;1.50;;
40449;SDS011;41787;53.570;10.032;2022-10-16T16:30:58;5.63;;;1.25;;
40449;SDS011;41787;53.570;10.032;2022-10-16T16:33:24;6.90;;;1.30;;
40449;SDS011;41787;53.570;10.032;2022-10-16T16:35:50;6.50;;;1.50;;
40449;SDS011;41787;53.570;10.032;2022-10-16T16:38:16;3.17;;;1.23;;
40449;SDS011;41787;53.570;10.032;2022-10-16T16:40:42;7.20;;;1.45;;